Time;durP1;ratioP1;P1;durP2;ratioP2;P2;SDS_P1;SDS_P2;PMS_P1;PMS_P2;Temp;Humidity;BMP_temperature;BMP_pressure;BME280_temperature;BME280_humidity;BME280_pressure;Samples;Min_cycle;Max_cycle;Signal;HPM_P1;HPM_P2
2024/01/18 00:00:48;;;;;;;18.17;9.67;;;;;;;;;;5080793;28;20219;-74
2024/01/18 00:03:14;;;;;;;18.57;9.03;;;;;;;;;;5073374;28;20491;-73
2024/01/18 00:05:40;;;;;;;18.37;8.90;;;;;;;;;;5073405;28;20742;-72
2024/01/18 00:08:06;;;;;;;16.47;9.63;;;;;;;;;;5077657;28;20202;-75
2024/01/18 00:10:33;;;;;;;16.43;9.00;;;;;;;;;;5076619;28;20199;-74
2024/01/18 00:12:59;;;;;;;15.83;9.20;;;;;;;;;;5077937;28;20744;-75
2024/01/18 00:15:25;;;;;;;22.00;9.37;;;;;;;;;;5079517;28;20727;-75
2024/01/18 00:17:51;;;;;;;15.47;8.67;;;;;;;;;;5074314;28;20799;-74
2024/01/18 00:20:17;;;;;;;17.47;8.87;;;;;;;;;;5076501;28;20794;-75
2024/01/18 00:22:43;;;;;;;16.87;9.40;;;;;;;;;;5079233;28;20217;-74
2024/01/18 00:25:09;;;;;;;17.73;8.83;;;;;;;;;;5076743;28;20241;-72
2024/01/18 00:27:35;;;;;;;12.67;7.73;;;;;;;;;;5076687;28;20265;-76
2024/01/18 00:30:01;;;;;;;22.23;10.00;;;;;;;;;;5082349;28;20186;-74
2024/01/18 00:32:27;;;;;;;15.53;8.90;;;;;;;;;;5082962;28;20239;-73
2024/01/18 00:34:53;;;;;;;17.60;8.87;;;;;;;;;;5088841;28;20368;-75
2024/01/18 00:37:19;;;;;;;17.43;9.07;;;;;;;;;;5088025;28;20218;-74
2024/01/18 00:39:45;;;;;;;14.33;9.00;;;;;;;;;;5071192;28;20203;-75
2024/01/18 00:42:11;;;;;;;18.80;8.87;;;;;;;;;;5089379;28;20193;-74
2024/01/18 00:44:37;;;;;;;17.00;9.07;;;;;;;;;;5055532;28;20679;-75
2024/01/18 00:47:03;;;;;;;15.97;8.73;;;;;;;;;;5082401;28;20449;-75
2024/01/18 00:49:29;;;;;;;19.57;9.50;;;;;;;;;;5083991;28;20274;-75
2024/01/18 00:51:55;;;;;;;18.53;8.67;;;;;;;;;;5084783;28;20249;-75
2024/01/18 00:54:21;;;;;;;16.40;8.50;;;;;;;;;;5082653;28;20236;-75
2024/01/18 00:56:47;;;;;;;19.37;8.40;;;;;;;;;;5083582;28;20179;-75
2024/01/18 00:59:13;;;;;;;14.77;8.60;;;;;;;;;;5083802;28;20302;-75
2024/01/18 01:01:39;;;;;;;17.50;9.40;;;;;;;;;;5077833;28;20234;-75
2024/01/18 01:04:05;;;;;;;17.57;9.73;;;;;;;;;;5081550;28;20217;-76
2024/01/18 01:06:31;;;;;;;14.37;8.90;;;;;;;;;;5080101;28;20217;-75
2024/01/18 01:08:57;;;;;;;14.83;9.23;;;;;;;;;;5082484;28;20188;-74
2024/01/18 01:11:23;;;;;;;17.57;8.93;;;;;;;;;;5075691;28;20221;-75
2024/01/18 01:13:49;;;;;;;14.20;8.80;;;;;;;;;;5079829;28;20202;-76
2024/01/18 01:16:15;;;;;;;17.87;9.90;;;;;;;;;;5074498;28;20214;-75
2024/01/18 01:18:41;;;;;;;17.73;9.37;;;;;;;;;;5080107;28;20272;-75
2024/01/18 01:21:08;;;;;;;17.13;8.23;;;;;;;;;;5080880;28;20178;-75
2024/01/18 01:23:40;;;;;;;15.30;8.60;;;;;;;;;;5081584;28;20242;-75
2024/01/18 01:26:08;;;;;;;14.97;8.80;;;;;;;;;;5056728;28;20210;-75
2024/01/18 01:28:34;;;;;;;14.70;8.83;;;;;;;;;;5079925;28;20325;-75
2024/01/18 01:31:00;;;;;;;15.07;9.40;;;;;;;;;;5078841;28;20304;-75
2024/01/18 01:33:26;;;;;;;15.13;8.07;;;;;;;;;;5072450;28;20218;-75
2024/01/18 01:35:52;;;;;;;18.97;9.13;;;;;;;;;;5079215;28;20249;-76
2024/01/18 01:38:18;;;;;;;16.93;8.43;;;;;;;;;;5051704;28;20598;-71
2024/01/18 01:40:44;;;;;;;14.87;8.07;;;;;;;;;;5081178;28;20206;-76
2024/01/18 01:43:10;;;;;;;13.80;8.30;;;;;;;;;;5078004;28;20417;-74
2024/01/18 01:45:36;;;;;;;16.80;9.20;;;;;;;;;;5081390;28;20239;-75
2024/01/18 01:48:02;;;;;;;18.77;8.17;;;;;;;;;;5077735;28;20275;-74
2024/01/18 01:50:28;;;;;;;15.77;9.13;;;;;;;;;;5067932;28;20210;-75
2024/01/18 01:52:55;;;;;;;20.10;9.73;;;;;;;;;;5073902;28;20287;-75
2024/01/18 01:55:21;;;;;;;21.63;10.50;;;;;;;;;;5074037;28;20211;-74
2024/01/18 01:57:47;;;;;;;15.70;9.60;;;;;;;;;;5048817;28;20198;-74
2024/01/18 02:00:15;;;;;;;15.37;8.33;;;;;;;;;;5076360;28;20244;-75
2024/01/18 02:02:42;;;;;;;16.50;8.93;;;;;;;;;;5075217;28;20221;-74
2024/01/18 02:05:09;;;;;;;16.30;9.40;;;;;;;;;;5073648;28;20297;-74
2024/01/18 02:07:36;;;;;;;15.13;9.13;;;;;;;;;;5076392;28;20720;-74
2024/01/18 02:10:03;;;;;;;19.60;9.50;;;;;;;;;;5073488;28;20228;-75
2024/01/18 02:12:30;;;;;;;20.67;10.40;;;;;;;;;;5078593;28;20221;-74
2024/01/18 02:14:56;;;;;;;17.17;9.23;;;;;;;;;;5076757;28;20171;-75
2024/01/18 02:17:22;;;;;;;19.17;10.03;;;;;;;;;;5069963;28;20696;-75
2024/01/18 02:19:48;;;;;;;18.50;9.90;;;;;;;;;;5071230;28;20712;-74
2024/01/18 02:22:16;;;;;;;16.67;9.60;;;;;;;;;;5075937;28;20206;-75
2024/01/18 02:24:46;;;;;;;16.03;8.70;;;;;;;;;;5075842;28;20314;-75
2024/01/18 02:27:12;;;;;;;15.40;8.67;;;;;;;;;;5077173;28;20216;-75
2024/01/18 02:29:38;;;;;;;17.27;9.87;;;;;;;;;;5056296;28;20755;-74
2024/01/18 02:32:04;;;;;;;17.23;9.53;;;;;;;;;;5058280;28;20216;-75
2024/01/18 02:34:30;;;;;;;20.70;10.10;;;;;;;;;;5056845;28;20215;-75
2024/01/18 02:36:56;;;;;;;17.73;9.43;;;;;;;;;;5059429;28;20212;-74
2024/01/18 02:39:22;;;;;;;18.40;9.93;;;;;;;;;;5073407;28;20232;-74
2024/01/18 02:41:48;;;;;;;13.47;8.73;;;;;;;;;;5059800;28;20201;-76
2024/01/18 02:44:15;;;;;;;16.47;8.80;;;;;;;;;;5072977;28;20588;-75
2024/01/18 02:46:41;;;;;;;20.73;9.00;;;;;;;;;;5077222;28;20207;-74
2024/01/18 02:49:07;;;;;;;16.30;8.90;;;;;;;;;;5077805;28;20245;-74
2024/01/18 02:51:33;;;;;;;16.10;9.37;;;;;;;;;;5063581;28;20696;-75
2024/01/18 02:53:59;;;;;;;15.20;8.70;;;;;;;;;;5079732;28;20178;-74
2024/01/18 02:56:25;;;;;;;22.07;11.17;;;;;;;;;;5079809;28;20267;-75
2024/01/18 02:58:51;;;;;;;16.73;9.77;;;;;;;;;;5081255;28;20206;-75
2024/01/18 03:01:17;;;;;;;16.10;9.33;;;;;;;;;;5078461;28;20220;-75
2024/01/18 03:03:43;;;;;;;18.00;9.10;;;;;;;;;;5080555;28;20226;-75
2024/01/18 03:06:09;;;;;;;16.60;9.43;;;;;;;;;;5083191;28;20183;-76
2024/01/18 03:08:36;;;;;;;19.83;9.57;;;;;;;;;;5078691;28;20552;-75
2024/01/18 03:11:02;;;;;;;26.20;10.07;;;;;;;;;;5054863;28;20216;-75
2024/01/18 03:13:28;;;;;;;17.37;10.03;;;;;;;;;;5075808;28;20222;-75
2024/01/18 03:15:54;;;;;;;17.30;9.47;;;;;;;;;;5059174;28;20716;-75
2024/01/18 03:18:20;;;;;;;17.40;9.40;;;;;;;;;;5080110;28;20188;-75
2024/01/18 03:20:46;;;;;;;19.03;10.13;;;;;;;;;;5060333;28;20553;-76
2024/01/18 03:23:12;;;;;;;18.20;9.83;;;;;;;;;;5066500;28;20225;-75
2024/01/18 03:25:38;;;;;;;19.27;9.63;;;;;;;;;;5074860;28;20242;-74
2024/01/18 03:28:04;;;;;;;20.87;10.07;;;;;;;;;;5059458;28;20644;-74
2024/01/18 03:30:30;;;;;;;18.53;9.87;;;;;;;;;;5058119;28;20218;-75
2024/01/18 03:32:56;;;;;;;18.90;9.77;;;;;;;;;;5082159;28;20206;-74
2024/01/18 03:35:22;;;;;;;20.60;10.23;;;;;;;;;;5057298;28;20210;-75
2024/01/18 03:37:48;;;;;;;20.87;10.57;;;;;;;;;;5077668;28;20701;-74
2024/01/18 03:40:14;;;;;;;18.10;10.20;;;;;;;;;;5078172;28;20298;-75
2024/01/18 03:42:43;;;;;;;23.57;9.77;;;;;;;;;;5071781;28;20226;-75
2024/01/18 03:45:10;;;;;;;20.90;10.57;;;;;;;;;;5075952;28;20193;-75
2024/01/18 03:47:36;;;;;;;15.60;9.40;;;;;;;;;;5076736;28;20204;-73
2024/01/18 03:50:02;;;;;;;19.63;10.80;;;;;;;;;;5060432;28;20226;-74
2024/01/18 03:52:28;;;;;;;20.10;9.07;;;;;;;;;;5057935;28;20726;-73
2024/01/18 03:54:54;;;;;;;22.13;10.57;;;;;;;;;;5054180;28;20204;-74
2024/01/18 03:57:20;;;;;;;17.83;10.43;;;;;;;;;;5074134;28;20369;-74
2024/01/18 03:59:47;;;;;;;16.80;9.63;;;;;;;;;;5075369;28;20191;-75
2024/01/18 04:02:13;;;;;;;19.83;10.73;;;;;;;;;;5080626;28;20297;-75
2024/01/18 04:04:39;;;;;;;26.37;10.13;;;;;;;;;;5077877;28;20238;-75
2024/01/18 04:07:05;;;;;;;17.00;9.83;;;;;;;;;;5078674;28;20207;-75
2024/01/18 04:09:31;;;;;;;16.03;9.33;;;;;;;;;;5078350;28;20210;-75
2024/01/18 04:11:57;;;;;;;21.70;10.03;;;;;;;;;;5080945;28;20228;-75
2024/01/18 04:14:23;;;;;;;18.63;9.37;;;;;;;;;;5077967;28;20210;-76
2024/01/18 04:16:49;;;;;;;15.57;10.00;;;;;;;;;;5059615;28;20213;-75
2024/01/18 04:19:15;;;;;;;16.53;9.37;;;;;;;;;;5072337;28;20258;-75
2024/01/18 04:21:43;;;;;;;23.57;9.60;;;;;;;;;;5070787;28;20325;-74
2024/01/18 04:24:10;;;;;;;21.07;10.10;;;;;;;;;;5078526;28;20288;-75
2024/01/18 04:26:36;;;;;;;18.00;9.83;;;;;;;;;;5079287;28;20235;-75
2024/01/18 04:29:02;;;;;;;18.93;9.83;;;;;;;;;;5076230;28;20207;-74
2024/01/18 04:31:28;;;;;;;22.53;10.23;;;;;;;;;;5075807;28;20210;-74
2024/01/18 04:33:55;;;;;;;19.43;9.33;;;;;;;;;;5074088;28;20290;-75
2024/01/18 04:36:21;;;;;;;21.63;11.17;;;;;;;;;;5071324;28;20213;-75
2024/01/18 04:38:47;;;;;;;17.27;9.80;;;;;;;;;;5076268;28;20207;-73
2024/01/18 04:41:15;;;;;;;20.07;10.27;;;;;;;;;;5074004;28;20296;-74
2024/01/18 04:43:41;;;;;;;17.03;8.67;;;;;;;;;;5072868;28;20211;-74
2024/01/18 04:46:09;;;;;;;21.73;9.77;;;;;;;;;;5075964;28;20302;-73
2024/01/18 04:48:36;;;;;;;19.47;10.10;;;;;;;;;;5072293;28;20198;-73
2024/01/18 04:51:02;;;;;;;19.43;9.97;;;;;;;;;;5077673;28;20540;-73
2024/01/18 04:53:28;;;;;;;20.23;9.80;;;;;;;;;;5075136;28;20217;-74
2024/01/18 04:55:54;;;;;;;21.20;10.67;;;;;;;;;;5053301;28;20782;-74
2024/01/18 04:58:21;;;;;;;22.70;10.50;;;;;;;;;;5076999;28;20213;-73
2024/01/18 05:00:47;;;;;;;18.47;9.80;;;;;;;;;;5064189;28;20218;-74
2024/01/18 05:03:13;;;;;;;17.00;9.73;;;;;;;;;;5065535;28;20198;-74
2024/01/18 05:05:40;;;;;;;20.03;10.00;;;;;;;;;;5067949;28;20191;-74
2024/01/18 05:08:07;;;;;;;15.23;9.63;;;;;;;;;;5073670;28;20264;-75
2024/01/18 05:10:33;;;;;;;18.40;9.70;;;;;;;;;;5074713;28;20201;-75
2024/01/18 05:12:59;;;;;;;22.17;11.20;;;;;;;;;;5075773;28;20210;-75
2024/01/18 05:15:25;;;;;;;20.50;10.13;;;;;;;;;;5075705;28;20509;-75
2024/01/18 05:17:51;;;;;;;20.33;10.87;;;;;;;;;;5076362;28;20188;-74
2024/01/18 05:20:17;;;;;;;19.73;9.97;;;;;;;;;;5065639;28;20715;-74
2024/01/18 05:22:44;;;;;;;21.80;11.60;;;;;;;;;;5073027;28;20259;-75
2024/01/18 05:25:10;;;;;;;16.77;10.07;;;;;;;;;;5076596;28;20217;-75
2024/01/18 05:27:39;;;;;;;20.73;9.53;;;;;;;;;;5072616;28;20220;-72
2024/01/18 05:30:05;;;;;;;17.13;10.13;;;;;;;;;;5079917;28;20179;-74
2024/01/18 05:32:31;;;;;;;17.30;10.50;;;;;;;;;;5073924;28;20222;-74
2024/01/18 05:34:57;;;;;;;17.33;9.60;;;;;;;;;;5071591;28;20267;-75
2024/01/18 05:37:23;;;;;;;19.27;9.97;;;;;;;;;;5069226;28;20203;-75
2024/01/18 05:39:50;;;;;;;20.70;10.47;;;;;;;;;;5070906;28;20325;-74
2024/01/18 05:42:18;;;;;;;23.23;10.63;;;;;;;;;;5079212;28;20630;-75
2024/01/18 05:44:45;;;;;;;20.90;9.90;;;;;;;;;;5072767;28;20547;-74
2024/01/18 05:47:11;;;;;;;19.87;10.57;;;;;;;;;;5075675;28;20692;-75
2024/01/18 05:49:37;;;;;;;19.50;10.63;;;;;;;;;;5076038;28;20725;-75
2024/01/18 05:52:03;;;;;;;19.60;10.50;;;;;;;;;;5076019;28;20206;-75
2024/01/18 05:54:29;;;;;;;20.93;11.03;;;;;;;;;;5078852;28;20218;-74
2024/01/18 05:56:55;;;;;;;20.93;10.03;;;;;;;;;;5075484;28;20196;-74
2024/01/18 05:59:21;;;;;;;18.60;10.07;;;;;;;;;;5059883;28;20289;-74
2024/01/18 06:01:47;;;;;;;16.63;10.37;;;;;;;;;;5075046;28;20772;-74
2024/01/18 06:04:13;;;;;;;21.33;10.67;;;;;;;;;;5076192;28;20211;-73
2024/01/18 06:06:39;;;;;;;22.20;11.60;;;;;;;;;;5077745;28;20214;-75
2024/01/18 06:09:05;;;;;;;16.60;9.10;;;;;;;;;;5059187;28;20724;-74
2024/01/18 06:11:31;;;;;;;20.13;10.83;;;;;;;;;;5066473;28;20293;-73
2024/01/18 06:13:57;;;;;;;22.67;11.10;;;;;;;;;;5042393;28;20264;-74
2024/01/18 06:16:23;;;;;;;19.30;10.77;;;;;;;;;;5077911;28;20212;-74
2024/01/18 06:18:49;;;;;;;21.13;10.80;;;;;;;;;;5073307;28;20224;-74
2024/01/18 06:21:15;;;;;;;18.33;10.57;;;;;;;;;;5074897;28;20517;-74
2024/01/18 06:23:41;;;;;;;21.60;11.80;;;;;;;;;;5056412;28;20278;-73
2024/01/18 06:26:13;;;;;;;22.83;11.80;;;;;;;;;;5075091;28;20211;-74
2024/01/18 06:28:39;;;;;;;24.93;12.17;;;;;;;;;;5076443;28;20212;-74
2024/01/18 06:31:06;;;;;;;21.70;10.53;;;;;;;;;;5073824;28;20210;-75
2024/01/18 06:33:33;;;;;;;19.43;11.00;;;;;;;;;;5072918;28;20261;-75
2024/01/18 06:35:59;;;;;;;20.53;11.90;;;;;;;;;;5079095;28;20533;-75
2024/01/18 06:38:26;;;;;;;18.97;11.10;;;;;;;;;;5078398;28;20301;-74
2024/01/18 06:40:52;;;;;;;19.63;11.37;;;;;;;;;;5074677;28;20222;-74
2024/01/18 06:43:18;;;;;;;19.10;10.80;;;;;;;;;;5077171;28;20208;-74
2024/01/18 06:45:44;;;;;;;25.57;12.07;;;;;;;;;;5081613;28;20671;-77
2024/01/18 06:48:10;;;;;;;22.73;11.83;;;;;;;;;;5057236;28;20186;-74
2024/01/18 06:50:36;;;;;;;19.10;10.70;;;;;;;;;;5075542;28;20248;-75
2024/01/18 06:53:03;;;;;;;20.67;10.87;;;;;;;;;;5074106;28;20700;-73
2024/01/18 06:55:29;;;;;;;19.90;10.60;;;;;;;;;;5076142;28;20212;-75
2024/01/18 06:57:58;;;;;;;22.30;12.00;;;;;;;;;;5053673;28;20498;-74
2024/01/18 07:00:24;;;;;;;27.30;11.93;;;;;;;;;;5055562;28;20182;-74
2024/01/18 07:02:50;;;;;;;22.93;11.07;;;;;;;;;;5077691;28;20244;-74
2024/01/18 07:05:20;;;;;;;22.97;11.23;;;;;;;;;;5074570;28;20237;-74
2024/01/18 07:07:46;;;;;;;22.40;12.30;;;;;;;;;;5074137;28;20279;-74
2024/01/18 07:10:12;;;;;;;22.90;12.57;;;;;;;;;;5071819;28;20677;-73
2024/01/18 07:12:38;;;;;;;21.40;11.30;;;;;;;;;;5077649;28;20238;-73
2024/01/18 07:15:07;;;;;;;27.37;14.23;;;;;;;;;;5084236;28;20174;-73
2024/01/18 07:17:33;;;;;;;22.33;10.77;;;;;;;;;;5079047;28;20297;-74
2024/01/18 07:19:59;;;;;;;20.47;11.63;;;;;;;;;;5059920;28;20208;-74
2024/01/18 07:22:27;;;;;;;23.67;12.17;;;;;;;;;;5079814;28;20199;-75
2024/01/18 07:24:53;;;;;;;29.33;13.00;;;;;;;;;;5060121;28;20287;-76
2024/01/18 07:27:19;;;;;;;21.77;11.67;;;;;;;;;;5080997;28;20192;-74
2024/01/18 07:29:45;;;;;;;20.20;11.97;;;;;;;;;;5082125;28;20258;-75
2024/01/18 07:32:11;;;;;;;22.93;11.63;;;;;;;;;;5075569;28;20222;-74
2024/01/18 07:34:37;;;;;;;20.03;11.67;;;;;;;;;;5076456;28;20210;-74
2024/01/18 07:37:03;;;;;;;25.10;12.57;;;;;;;;;;5070165;28;20198;-74
2024/01/18 07:39:30;;;;;;;25.87;13.60;;;;;;;;;;5054376;28;20211;-74
2024/01/18 07:41:56;;;;;;;23.73;12.43;;;;;;;;;;5076413;28;20196;-73
2024/01/18 07:44:22;;;;;;;23.07;12.37;;;;;;;;;;5074516;28;20207;-73
2024/01/18 07:46:49;;;;;;;23.43;12.23;;;;;;;;;;5075949;28;20286;-74
2024/01/18 07:49:15;;;;;;;24.43;12.33;;;;;;;;;;5072745;28;20265;-73
2024/01/18 07:51:41;;;;;;;20.60;11.80;;;;;;;;;;5061278;28;20218;-74
2024/01/18 07:54:07;;;;;;;22.90;12.67;;;;;;;;;;5061563;28;20193;-72
2024/01/18 07:56:33;;;;;;;22.10;11.87;;;;;;;;;;5074653;28;20297;-73
2024/01/18 07:58:59;;;;;;;25.80;13.03;;;;;;;;;;5077426;28;20213;-72
2024/01/18 08:01:25;;;;;;;20.20;12.03;;;;;;;;;;5073105;28;20206;-73
2024/01/18 08:03:51;;;;;;;20.87;12.07;;;;;;;;;;5075465;28;20220;-73
2024/01/18 08:06:17;;;;;;;18.97;12.33;;;;;;;;;;5077967;28;20185;-72
2024/01/18 08:08:43;;;;;;;24.70;12.33;;;;;;;;;;5078241;28;20667;-72
2024/01/18 08:11:10;;;;;;;23.73;12.43;;;;;;;;;;5077541;28;20213;-71
2024/01/18 08:13:36;;;;;;;25.43;13.00;;;;;;;;;;5062404;28;20194;-72
2024/01/18 08:16:02;;;;;;;23.40;12.60;;;;;;;;;;5076081;28;20245;-72
2024/01/18 08:18:28;;;;;;;25.13;12.97;;;;;;;;;;5079875;28;20214;-72
2024/01/18 08:20:54;;;;;;;19.27;11.63;;;;;;;;;;5062936;28;20182;-74
2024/01/18 08:23:23;;;;;;;21.23;11.57;;;;;;;;;;5060130;28;20642;-75
2024/01/18 08:25:49;;;;;;;26.80;12.77;;;;;;;;;;5079270;28;20207;-72
2024/01/18 08:28:15;;;;;;;21.90;13.20;;;;;;;;;;5076645;28;20621;-73
2024/01/18 08:30:41;;;;;;;25.93;12.57;;;;;;;;;;5062085;28;20893;-73
2024/01/18 08:33:10;;;;;;;20.60;12.20;;;;;;;;;;5078535;28;20194;-73
2024/01/18 08:35:36;;;;;;;21.77;12.53;;;;;;;;;;5077355;28;20206;-73
2024/01/18 08:38:02;;;;;;;24.90;12.57;;;;;;;;;;5061545;28;20202;-73
2024/01/18 08:40:28;;;;;;;21.03;12.77;;;;;;;;;;5079889;28;20287;-73
2024/01/18 08:42:54;;;;;;;23.10;11.70;;;;;;;;;;5076306;28;20831;-74
2024/01/18 08:45:20;;;;;;;23.97;12.23;;;;;;;;;;5078379;28;20179;-73
2024/01/18 08:47:47;;;;;;;20.53;12.53;;;;;;;;;;5081372;28;20322;-73
2024/01/18 08:50:16;;;;;;;26.00;12.03;;;;;;;;;;5076532;28;20256;-73
2024/01/18 08:52:42;;;;;;;19.13;11.77;;;;;;;;;;5079275;28;20206;-73
2024/01/18 08:55:08;;;;;;;22.17;12.53;;;;;;;;;;5076363;28;20215;-73
2024/01/18 08:57:34;;;;;;;24.03;11.67;;;;;;;;;;5078937;28;20213;-73
2024/01/18 09:00:01;;;;;;;26.93;13.10;;;;;;;;;;5075778;28;20183;-73
2024/01/18 09:02:27;;;;;;;20.90;11.47;;;;;;;;;;5074949;28;20207;-73
2024/01/18 09:04:53;;;;;;;24.43;12.97;;;;;;;;;;5078133;28;20227;-73
2024/01/18 09:07:19;;;;;;;25.37;13.37;;;;;;;;;;5058720;28;20207;-74
2024/01/18 09:09:46;;;;;;;25.60;13.97;;;;;;;;;;5079337;28;20671;-73
2024/01/18 09:12:13;;;;;;;23.17;13.23;;;;;;;;;;5080022;28;20497;-73
2024/01/18 09:14:39;;;;;;;22.60;12.57;;;;;;;;;;5061359;28;20300;-73
2024/01/18 09:17:05;;;;;;;22.20;13.03;;;;;;;;;;5076490;28;20223;-72
2024/01/18 09:19:31;;;;;;;24.83;13.37;;;;;;;;;;5078821;28;20228;-73
2024/01/18 09:21:57;;;;;;;24.23;13.00;;;;;;;;;;5076239;28;20238;-73
2024/01/18 09:24:23;;;;;;;24.90;14.17;;;;;;;;;;5077750;28;20273;-73
2024/01/18 09:26:49;;;;;;;30.17;13.87;;;;;;;;;;5058393;28;20652;-73
2024/01/18 09:29:15;;;;;;;28.10;16.13;;;;;;;;;;5075361;28;20683;-73
2024/01/18 09:31:41;;;;;;;24.27;13.47;;;;;;;;;;5079055;28;20212;-73
2024/01/18 09:34:07;;;;;;;27.30;13.67;;;;;;;;;;5073160;28;20208;-72
2024/01/18 09:36:33;;;;;;;24.50;13.60;;;;;;;;;;5061766;28;20770;-72
2024/01/18 09:38:59;;;;;;;28.83;14.27;;;;;;;;;;5078739;28;20198;-73
2024/01/18 09:41:30;;;;;;;25.27;13.30;;;;;;;;;;5075865;28;20223;-73
2024/01/18 09:44:03;;;;;;;27.03;14.50;;;;;;;;;;5078397;28;20246;-73
2024/01/18 09:46:29;;;;;;;23.97;12.50;;;;;;;;;;5076189;28;20202;-73
2024/01/18 09:48:55;;;;;;;27.37;14.67;;;;;;;;;;5074903;28;20257;-73
2024/01/18 09:51:23;;;;;;;27.47;14.17;;;;;;;;;;5059980;28;20184;-73
2024/01/18 09:53:54;;;;;;;21.93;13.13;;;;;;;;;;5078078;28;20166;-73
2024/01/18 09:56:27;;;;;;;29.20;14.13;;;;;;;;;;5077560;28;20210;-73
2024/01/18 09:58:54;;;;;;;27.90;14.20;;;;;;;;;;5077308;28;20365;-73
2024/01/18 10:01:21;;;;;;;30.40;15.47;;;;;;;;;;5068107;28;20213;-74
2024/01/18 10:03:48;;;;;;;31.77;14.87;;;;;;;;;;5098303;28;20474;-73
2024/01/18 10:06:15;;;;;;;24.13;14.07;;;;;;;;;;5086760;28;20188;-73
2024/01/18 10:08:41;;;;;;;25.33;13.60;;;;;;;;;;5081328;28;20172;-73
2024/01/18 10:11:07;;;;;;;31.70;14.33;;;;;;;;;;5081935;28;20298;-73
2024/01/18 10:13:52;;;;;;;29.87;15.13;;;;;;;;;;5084866;28;20205;-74
2024/01/18 10:16:27;;;;;;;28.47;15.23;;;;;;;;;;5080000;28;20282;-74
2024/01/18 10:18:54;;;;;;;26.93;14.77;;;;;;;;;;5080155;28;20293;-74
2024/01/18 10:21:21;;;;;;;29.00;14.10;;;;;;;;;;5062070;28;20211;-74
2024/01/18 10:23:47;;;;;;;33.53;16.93;;;;;;;;;;5065328;28;20205;-75
2024/01/18 10:26:15;;;;;;;27.70;14.73;;;;;;;;;;5079048;28;20202;-74
2024/01/18 10:28:41;;;;;;;28.60;15.23;;;;;;;;;;5076565;28;20207;-73
2024/01/18 10:31:08;;;;;;;29.83;16.80;;;;;;;;;;5059820;28;20287;-73
2024/01/18 10:33:34;;;;;;;32.80;15.40;;;;;;;;;;5077087;28;20673;-72
2024/01/18 10:36:00;;;;;;;27.70;15.33;;;;;;;;;;5082033;28;20241;-73
2024/01/18 10:38:30;;;;;;;30.83;16.57;;;;;;;;;;5078430;28;20722;-73
2024/01/18 10:40:59;;;;;;;28.33;15.40;;;;;;;;;;5064027;28;20199;-73
2024/01/18 10:43:29;;;;;;;29.70;14.90;;;;;;;;;;5080259;28;20267;-73
2024/01/18 10:45:55;;;;;;;30.03;15.23;;;;;;;;;;5066127;28;20539;-73
2024/01/18 10:48:22;;;;;;;28.33;14.50;;;;;;;;;;5076481;28;20183;-72
2024/01/18 10:50:51;;;;;;;29.27;15.73;;;;;;;;;;5082212;28;20175;-73
2024/01/18 10:53:17;;;;;;;28.63;15.60;;;;;;;;;;5078839;28;20217;-74
2024/01/18 10:55:43;;;;;;;29.30;14.83;;;;;;;;;;5081892;28;20198;-73
2024/01/18 10:58:09;;;;;;;35.00;15.83;;;;;;;;;;5060412;28;20723;-72
2024/01/18 11:00:35;;;;;;;39.00;15.27;;;;;;;;;;5079101;28;20203;-73
2024/01/18 11:03:01;;;;;;;32.57;14.73;;;;;;;;;;5080186;28;20198;-73
2024/01/18 11:05:27;;;;;;;30.77;15.43;;;;;;;;;;5077735;28;20209;-73
2024/01/18 11:07:53;;;;;;;28.90;14.77;;;;;;;;;;5081817;28;20218;-72
2024/01/18 11:10:20;;;;;;;28.27;14.90;;;;;;;;;;5080280;28;20207;-72
2024/01/18 11:12:49;;;;;;;29.20;14.70;;;;;;;;;;5062177;28;20578;-73
2024/01/18 11:15:15;;;;;;;29.00;13.47;;;;;;;;;;5079792;28;20198;-72
2024/01/18 11:17:46;;;;;;;34.27;15.30;;;;;;;;;;5067580;28;20199;-73
2024/01/18 11:20:12;;;;;;;28.67;14.83;;;;;;;;;;5091139;28;20214;-73
2024/01/18 11:22:39;;;;;;;32.47;15.10;;;;;;;;;;5095396;28;20216;-73
2024/01/18 11:25:06;;;;;;;26.17;14.10;;;;;;;;;;5096187;28;20222;-74
2024/01/18 11:27:39;;;;;;;26.90;15.20;;;;;;;;;;5072948;28;20206;-74
2024/01/18 11:30:10;;;;;;;28.57;14.57;;;;;;;;;;5092957;28;20175;-74
2024/01/18 11:32:37;;;;;;;27.67;15.53;;;;;;;;;;5082381;28;20243;-73
2024/01/18 11:35:11;;;;;;;29.87;15.73;;;;;;;;;;5062429;28;20210;-73
2024/01/18 11:37:37;;;;;;;22.87;13.87;;;;;;;;;;5077207;28;20244;-73
2024/01/18 11:40:06;;;;;;;24.77;13.50;;;;;;;;;;5071627;28;20239;-74
2024/01/18 11:42:33;;;;;;;29.73;15.43;;;;;;;;;;5079271;28;20214;-73
2024/01/18 11:45:05;;;;;;;26.90;14.17;;;;;;;;;;5078858;28;20207;-73
2024/01/18 11:47:34;;;;;;;26.60;13.83;;;;;;;;;;5048356;28;20256;-73
2024/01/18 11:50:08;;;;;;;26.37;15.10;;;;;;;;;;5081632;28;20879;-73
2024/01/18 11:52:34;;;;;;;25.47;13.57;;;;;;;;;;5077038;28;20276;-74
2024/01/18 11:55:01;;;;;;;26.10;15.97;;;;;;;;;;5079204;28;20264;-73
2024/01/18 11:57:27;;;;;;;31.57;15.67;;;;;;;;;;5077167;28;20186;-73
2024/01/18 11:59:54;;;;;;;30.87;15.37;;;;;;;;;;5080120;28;20182;-73
2024/01/18 12:02:21;;;;;;;27.63;14.57;;;;;;;;;;5076773;28;20216;-73
2024/01/18 12:04:50;;;;;;;28.40;14.63;;;;;;;;;;5075142;28;20249;-74
2024/01/18 12:07:17;;;;;;;29.10;14.57;;;;;;;;;;5078294;28;20573;-73
2024/01/18 12:09:43;;;;;;;26.87;15.07;;;;;;;;;;5076329;28;20755;-72
2024/01/18 12:12:09;;;;;;;31.53;16.50;;;;;;;;;;5077632;28;20230;-73
2024/01/18 12:14:40;;;;;;;36.23;16.17;;;;;;;;;;5079622;28;20239;-73
2024/01/18 12:17:06;;;;;;;28.73;14.80;;;;;;;;;;5077597;28;20230;-73
2024/01/18 12:19:36;;;;;;;35.63;15.47;;;;;;;;;;5058690;28;20256;-73
2024/01/18 12:22:03;;;;;;;29.33;14.67;;;;;;;;;;5079575;28;20222;-73
2024/01/18 12:24:29;;;;;;;34.90;15.83;;;;;;;;;;5058154;28;20227;-73
2024/01/18 12:26:55;;;;;;;28.60;15.07;;;;;;;;;;5080409;28;20186;-73
2024/01/18 12:29:22;;;;;;;28.73;14.63;;;;;;;;;;5073210;28;20215;-73
2024/01/18 12:31:49;;;;;;;26.60;15.00;;;;;;;;;;5076300;28;20214;-72
2024/01/18 12:34:15;;;;;;;30.10;16.07;;;;;;;;;;5076332;28;20213;-73
2024/01/18 12:36:41;;;;;;;33.67;15.33;;;;;;;;;;5076720;28;20873;-73
2024/01/18 12:39:07;;;;;;;25.20;13.27;;;;;;;;;;5055570;28;20190;-73
2024/01/18 12:41:34;;;;;;;27.10;15.63;;;;;;;;;;5077651;28;20712;-74
2024/01/18 12:44:11;;;;;;;32.63;15.67;;;;;;;;;;5074682;28;20317;-73
2024/01/18 12:46:38;;;;;;;28.03;15.67;;;;;;;;;;5076383;28;20737;-73
2024/01/18 12:49:04;;;;;;;32.13;16.87;;;;;;;;;;5078042;28;20206;-74
2024/01/18 12:51:30;;;;;;;33.70;15.70;;;;;;;;;;5057572;28;20211;-74
2024/01/18 12:53:56;;;;;;;30.63;16.43;;;;;;;;;;5080510;28;20261;-74
2024/01/18 12:56:23;;;;;;;34.13;16.70;;;;;;;;;;5079636;28;20737;-74
2024/01/18 12:58:49;;;;;;;31.50;15.97;;;;;;;;;;5077695;28;20613;-73
2024/01/18 13:01:24;;;;;;;27.03;14.83;;;;;;;;;;5077036;28;20243;-73
2024/01/18 13:03:50;;;;;;;28.87;15.30;;;;;;;;;;5071493;28;20250;-73
2024/01/18 13:06:17;;;;;;;28.00;14.53;;;;;;;;;;5060143;28;20186;-73
2024/01/18 13:08:43;;;;;;;26.10;14.90;;;;;;;;;;5075748;28;20241;-73
2024/01/18 13:11:09;;;;;;;28.43;13.70;;;;;;;;;;5079191;28;20215;-73
2024/01/18 13:13:35;;;;;;;30.10;15.33;;;;;;;;;;5058230;28;20334;-73
2024/01/18 13:16:01;;;;;;;27.10;14.37;;;;;;;;;;5076628;28;20222;-74
2024/01/18 13:18:27;;;;;;;24.57;13.30;;;;;;;;;;5077400;28;20183;-73
2024/01/18 13:20:53;;;;;;;25.67;14.27;;;;;;;;;;5079490;28;20181;-74
2024/01/18 13:23:20;;;;;;;26.57;14.40;;;;;;;;;;5075244;28;20771;-73
2024/01/18 13:25:46;;;;;;;30.67;13.20;;;;;;;;;;5058892;28;20638;-73
2024/01/18 13:28:12;;;;;;;24.57;13.97;;;;;;;;;;5076841;28;20208;-73
2024/01/18 13:30:38;;;;;;;25.13;13.90;;;;;;;;;;5056904;28;20208;-73
2024/01/18 13:33:05;;;;;;;32.67;14.20;;;;;;;;;;5052762;28;20199;-73
2024/01/18 13:35:31;;;;;;;24.73;12.40;;;;;;;;;;5074872;28;20688;-74
2024/01/18 13:37:57;;;;;;;31.57;14.33;;;;;;;;;;5078683;28;20206;-74
2024/01/18 13:40:23;;;;;;;31.67;13.77;;;;;;;;;;5079750;28;20215;-74
2024/01/18 13:42:49;;;;;;;27.47;14.00;;;;;;;;;;5075955;28;20206;-74
2024/01/18 13:45:16;;;;;;;22.93;12.40;;;;;;;;;;5060232;28;20210;-74
2024/01/18 13:47:42;;;;;;;29.77;14.53;;;;;;;;;;5075388;28;20791;-72
2024/01/18 13:50:08;;;;;;;24.00;12.93;;;;;;;;;;5078278;28;20210;-74
2024/01/18 13:52:34;;;;;;;24.67;13.07;;;;;;;;;;5075669;28;20964;-73
2024/01/18 13:55:00;;;;;;;21.53;12.70;;;;;;;;;;5076440;28;20282;-73
2024/01/18 13:57:28;;;;;;;24.57;13.07;;;;;;;;;;5059392;28;20319;-72
2024/01/18 13:59:54;;;;;;;26.80;12.87;;;;;;;;;;5078201;28;20182;-73
2024/01/18 14:02:20;;;;;;;23.40;13.30;;;;;;;;;;5075146;28;20217;-74
2024/01/18 14:04:46;;;;;;;24.90;12.97;;;;;;;;;;5075929;28;20222;-73
2024/01/18 14:07:12;;;;;;;25.10;13.90;;;;;;;;;;5077217;28;20375;-74
2024/01/18 14:09:39;;;;;;;29.23;13.03;;;;;;;;;;5056001;28;20222;-73
2024/01/18 14:12:06;;;;;;;24.53;12.07;;;;;;;;;;5078978;28;20284;-73
2024/01/18 14:14:32;;;;;;;26.77;13.30;;;;;;;;;;5074856;28;20740;-74
2024/01/18 14:16:58;;;;;;;26.87;14.87;;;;;;;;;;5076794;28;20222;-76